sensor_id;sensor_type;location;lat;lon;timestamp;P1;durP1;ratioP1;P2;durP2;ratioP2
31652;SDS011;18261;53.648;9.910;2022-07-24T00:01:40;7.53;;;3.50;;
31652;SDS011;18261;53.648;9.910;2022-07-24T00:04:07;9.93;;;3.55;;
31652;SDS011;18261;53.648;9.910;2022-07-24T00:06:33;7.90;;;3.63;;
31652;SDS011;18261;53.648;9.910;2022-07-24T00:08:59;5.35;;;3.60;;
31652;SDS011;18261;53.648;9.910;2022-07-24T00:11:25;9.75;;;3.47;;
31652;SDS011;18261;53.648;9.910;2022-07-24T00:13:52;6.30;;;3.10;;
31652;SDS011;18261;53.648;9.910;2022-07-24T00:16:18;6.78;;;3.30;;
31652;SDS011;18261;53.648;9.910;2022-07-24T00:18:44;5.78;;;2.88;;
31652;SDS011;18261;53.648;9.910;2022-07-24T00:21:10;8.68;;;3.45;;
31652;SDS011;18261;53.648;9.910;2022-07-24T00:23:35;7.13;;;3.85;;
31652;SDS011;18261;53.648;9.910;2022-07-24T00:26:02;9.57;;;4.00;;
31652;SDS011;18261;53.648;9.910;2022-07-24T00:28:28;7.88;;;3.70;;
31652;SDS011;18261;53.648;9.910;2022-07-24T00:30:54;10.27;;;3.85;;
31652;SDS011;18261;53.648;9.910;2022-07-24T00:33:20;9.02;;;3.55;;
31652;SDS011;18261;53.648;9.910;2022-07-24T00:35:46;6.68;;;3.42;;
31652;SDS011;18261;53.648;9.910;2022-07-24T00:38:11;7.82;;;3.20;;
31652;SDS011;18261;53.648;9.910;2022-07-24T00:40:37;7.28;;;3.85;;
31652;SDS011;18261;53.648;9.910;2022-07-24T00:43:04;9.25;;;3.70;;
31652;SDS011;18261;53.648;9.910;2022-07-24T00:45:30;9.55;;;4.25;;
31652;SDS011;18261;53.648;9.910;2022-07-24T00:47:56;7.65;;;4.28;;
31652;SDS011;18261;53.648;9.910;2022-07-24T00:50:23;8.05;;;4.10;;
31652;SDS011;18261;53.648;9.910;2022-07-24T00:52:49;10.60;;;4.30;;
31652;SDS011;18261;53.648;9.910;2022-07-24T00:55:15;10.07;;;4.40;;
31652;SDS011;18261;53.648;9.910;2022-07-24T00:57:41;9.25;;;3.78;;
31652;SDS011;18261;53.648;9.910;2022-07-24T01:00:11;7.38;;;4.13;;
31652;SDS011;18261;53.648;9.910;2022-07-24T01:02:40;8.63;;;4.60;;
31652;SDS011;18261;53.648;9.910;2022-07-24T01:05:07;8.70;;;4.25;;
31652;SDS011;18261;53.648;9.910;2022-07-24T01:07:33;9.98;;;4.70;;
31652;SDS011;18261;53.648;9.910;2022-07-24T01:09:59;9.00;;;4.63;;
31652;SDS011;18261;53.648;9.910;2022-07-24T01:12:25;8.43;;;4.00;;
31652;SDS011;18261;53.648;9.910;2022-07-24T01:14:52;7.55;;;4.40;;
31652;SDS011;18261;53.648;9.910;2022-07-24T01:17:18;9.40;;;4.20;;
31652;SDS011;18261;53.648;9.910;2022-07-24T01:19:45;9.55;;;4.22;;
31652;SDS011;18261;53.648;9.910;2022-07-24T01:22:11;8.32;;;3.80;;
31652;SDS011;18261;53.648;9.910;2022-07-24T01:24:37;8.85;;;3.92;;
31652;SDS011;18261;53.648;9.910;2022-07-24T01:27:03;7.50;;;4.07;;
31652;SDS011;18261;53.648;9.910;2022-07-24T01:29:29;7.90;;;3.83;;
31652;SDS011;18261;53.648;9.910;2022-07-24T01:31:54;7.55;;;3.58;;
31652;SDS011;18261;53.648;9.910;2022-07-24T01:34:20;7.95;;;3.83;;
31652;SDS011;18261;53.648;9.910;2022-07-24T01:36:46;6.95;;;3.70;;
31652;SDS011;18261;53.648;9.910;2022-07-24T01:39:12;6.93;;;3.95;;
31652;SDS011;18261;53.648;9.910;2022-07-24T01:41:38;6.95;;;3.90;;
31652;SDS011;18261;53.648;9.910;2022-07-24T01:44:04;8.15;;;3.50;;
31652;SDS011;18261;53.648;9.910;2022-07-24T01:46:30;6.32;;;3.13;;
31652;SDS011;18261;53.648;9.910;2022-07-24T01:48:56;6.30;;;3.78;;
31652;SDS011;18261;53.648;9.910;2022-07-24T01:51:22;9.80;;;4.07;;
31652;SDS011;18261;53.648;9.910;2022-07-24T01:53:48;6.80;;;3.70;;
31652;SDS011;18261;53.648;9.910;2022-07-24T01:56:14;6.28;;;3.58;;
31652;SDS011;18261;53.648;9.910;2022-07-24T01:58:40;6.57;;;3.45;;
31652;SDS011;18261;53.648;9.910;2022-07-24T02:01:06;6.13;;;3.40;;
31652;SDS011;18261;53.648;9.910;2022-07-24T02:03:32;10.77;;;3.55;;
31652;SDS011;18261;53.648;9.910;2022-07-24T02:05:58;5.57;;;3.35;;
31652;SDS011;18261;53.648;9.910;2022-07-24T02:08:24;9.43;;;3.67;;
31652;SDS011;18261;53.648;9.910;2022-07-24T02:10:50;4.25;;;3.03;;
31652;SDS011;18261;53.648;9.910;2022-07-24T02:13:16;5.78;;;3.25;;
31652;SDS011;18261;53.648;9.910;2022-07-24T02:15:42;8.52;;;3.70;;
31652;SDS011;18261;53.648;9.910;2022-07-24T02:18:08;8.88;;;3.40;;
31652;SDS011;18261;53.648;9.910;2022-07-24T02:20:34;5.43;;;3.40;;
31652;SDS011;18261;53.648;9.910;2022-07-24T02:23:00;5.55;;;3.13;;
31652;SDS011;18261;53.648;9.910;2022-07-24T02:25:26;6.80;;;3.63;;
31652;SDS011;18261;53.648;9.910;2022-07-24T02:27:52;6.82;;;3.58;;
31652;SDS011;18261;53.648;9.910;2022-07-24T02:30:19;5.05;;;3.30;;
31652;SDS011;18261;53.648;9.910;2022-07-24T02:32:45;7.07;;;3.30;;
31652;SDS011;18261;53.648;9.910;2022-07-24T02:35:11;6.40;;;3.30;;
31652;SDS011;18261;53.648;9.910;2022-07-24T02:37:37;6.22;;;3.80;;
31652;SDS011;18261;53.648;9.910;2022-07-24T02:40:05;6.75;;;4.10;;
31652;SDS011;18261;53.648;9.910;2022-07-24T02:42:31;5.72;;;3.88;;
31652;SDS011;18261;53.648;9.910;2022-07-24T02:44:57;6.68;;;3.42;;
31652;SDS011;18261;53.648;9.910;2022-07-24T02:47:23;6.95;;;3.80;;
31652;SDS011;18261;53.648;9.910;2022-07-24T02:49:49;8.40;;;3.78;;
31652;SDS011;18261;53.648;9.910;2022-07-24T02:52:15;6.15;;;3.38;;
31652;SDS011;18261;53.648;9.910;2022-07-24T02:54:41;7.85;;;3.55;;
31652;SDS011;18261;53.648;9.910;2022-07-24T02:57:07;6.82;;;4.05;;
31652;SDS011;18261;53.648;9.910;2022-07-24T02:59:32;6.03;;;3.60;;
31652;SDS011;18261;53.648;9.910;2022-07-24T03:01:58;7.93;;;3.85;;
31652;SDS011;18261;53.648;9.910;2022-07-24T03:04:24;7.40;;;3.78;;
31652;SDS011;18261;53.648;9.910;2022-07-24T03:06:50;5.85;;;3.22;;
31652;SDS011;18261;53.648;9.910;2022-07-24T03:09:16;6.82;;;4.07;;
31652;SDS011;18261;53.648;9.910;2022-07-24T03:11:42;10.18;;;4.10;;
31652;SDS011;18261;53.648;9.910;2022-07-24T03:14:08;8.10;;;4.40;;
31652;SDS011;18261;53.648;9.910;2022-07-24T03:16:34;11.65;;;4.53;;
31652;SDS011;18261;53.648;9.910;2022-07-24T03:19:00;9.43;;;5.05;;
31652;SDS011;18261;53.648;9.910;2022-07-24T03:21:26;9.07;;;5.05;;
31652;SDS011;18261;53.648;9.910;2022-07-24T03:23:52;11.02;;;5.18;;
31652;SDS011;18261;53.648;9.910;2022-07-24T03:26:18;9.57;;;4.95;;
31652;SDS011;18261;53.648;9.910;2022-07-24T03:28:44;13.80;;;5.07;;
31652;SDS011;18261;53.648;9.910;2022-07-24T03:31:10;9.13;;;4.75;;
31652;SDS011;18261;53.648;9.910;2022-07-24T03:33:36;8.23;;;4.97;;
31652;SDS011;18261;53.648;9.910;2022-07-24T03:36:02;12.23;;;4.93;;
31652;SDS011;18261;53.648;9.910;2022-07-24T03:38:28;10.32;;;5.10;;
31652;SDS011;18261;53.648;9.910;2022-07-24T03:40:54;10.32;;;5.28;;
31652;SDS011;18261;53.648;9.910;2022-07-24T03:43:20;9.55;;;4.72;;
31652;SDS011;18261;53.648;9.910;2022-07-24T03:45:46;6.65;;;4.57;;
31652;SDS011;18261;53.648;9.910;2022-07-24T03:48:12;11.05;;;4.57;;
31652;SDS011;18261;53.648;9.910;2022-07-24T03:50:38;8.35;;;4.63;;
31652;SDS011;18261;53.648;9.910;2022-07-24T03:53:04;8.95;;;4.50;;
31652;SDS011;18261;53.648;9.910;2022-07-24T03:55:30;11.70;;;4.70;;
31652;SDS011;18261;53.648;9.910;2022-07-24T03:57:56;9.32;;;4.90;;
31652;SDS011;18261;53.648;9.910;2022-07-24T04:00:22;8.30;;;4.70;;
31652;SDS011;18261;53.648;9.910;2022-07-24T04:02:48;10.48;;;4.93;;
31652;SDS011;18261;53.648;9.910;2022-07-24T04:05:14;9.05;;;5.05;;
31652;SDS011;18261;53.648;9.910;2022-07-24T04:07:40;7.60;;;5.10;;
31652;SDS011;18261;53.648;9.910;2022-07-24T04:10:06;9.38;;;4.93;;
31652;SDS011;18261;53.648;9.910;2022-07-24T04:12:33;9.40;;;5.20;;
31652;SDS011;18261;53.648;9.910;2022-07-24T04:14:59;9.98;;;5.60;;
31652;SDS011;18261;53.648;9.910;2022-07-24T04:17:25;12.13;;;5.78;;
31652;SDS011;18261;53.648;9.910;2022-07-24T04:19:51;10.80;;;5.00;;
31652;SDS011;18261;53.648;9.910;2022-07-24T04:22:17;9.93;;;5.97;;
31652;SDS011;18261;53.648;9.910;2022-07-24T04:24:43;12.75;;;5.45;;
31652;SDS011;18261;53.648;9.910;2022-07-24T04:27:09;10.85;;;5.78;;
31652;SDS011;18261;53.648;9.910;2022-07-24T04:29:35;10.90;;;5.70;;
31652;SDS011;18261;53.648;9.910;2022-07-24T04:32:01;10.48;;;5.93;;
31652;SDS011;18261;53.648;9.910;2022-07-24T04:34:27;12.02;;;5.80;;
31652;SDS011;18261;53.648;9.910;2022-07-24T04:36:53;13.75;;;6.07;;
31652;SDS011;18261;53.648;9.910;2022-07-24T04:39:19;12.30;;;5.70;;
31652;SDS011;18261;53.648;9.910;2022-07-24T04:41:44;11.43;;;5.85;;
31652;SDS011;18261;53.648;9.910;2022-07-24T04:44:10;11.27;;;5.88;;
31652;SDS011;18261;53.648;9.910;2022-07-24T04:46:36;9.30;;;5.35;;
31652;SDS011;18261;53.648;9.910;2022-07-24T04:49:02;10.75;;;5.82;;
31652;SDS011;18261;53.648;9.910;2022-07-24T04:51:28;11.27;;;5.90;;
31652;SDS011;18261;53.648;9.910;2022-07-24T04:53:54;7.93;;;5.28;;
31652;SDS011;18261;53.648;9.910;2022-07-24T04:56:20;14.95;;;5.32;;
31652;SDS011;18261;53.648;9.910;2022-07-24T04:58:47;10.00;;;5.25;;
31652;SDS011;18261;53.648;9.910;2022-07-24T05:01:13;12.20;;;5.07;;
31652;SDS011;18261;53.648;9.910;2022-07-24T05:03:39;12.65;;;4.95;;
31652;SDS011;18261;53.648;9.910;2022-07-24T05:06:06;7.97;;;4.35;;
31652;SDS011;18261;53.648;9.910;2022-07-24T05:08:32;8.20;;;4.13;;
31652;SDS011;18261;53.648;9.910;2022-07-24T05:10:58;9.05;;;3.92;;
31652;SDS011;18261;53.648;9.910;2022-07-24T05:13:24;8.80;;;3.53;;
31652;SDS011;18261;53.648;9.910;2022-07-24T05:15:50;8.82;;;4.25;;
31652;SDS011;18261;53.648;9.910;2022-07-24T05:18:15;8.27;;;3.60;;
31652;SDS011;18261;53.648;9.910;2022-07-24T05:20:41;11.57;;;4.00;;
31652;SDS011;18261;53.648;9.910;2022-07-24T05:23:07;8.48;;;3.22;;
31652;SDS011;18261;53.648;9.910;2022-07-24T05:25:34;13.60;;;4.07;;
31652;SDS011;18261;53.648;9.910;2022-07-24T05:28:00;7.97;;;3.28;;
31652;SDS011;18261;53.648;9.910;2022-07-24T05:30:26;4.47;;;3.20;;
31652;SDS011;18261;53.648;9.910;2022-07-24T05:32:52;9.70;;;3.53;;
31652;SDS011;18261;53.648;9.910;2022-07-24T05:35:18;6.10;;;2.78;;
31652;SDS011;18261;53.648;9.910;2022-07-24T05:37:44;11.30;;;3.15;;
31652;SDS011;18261;53.648;9.910;2022-07-24T05:40:10;8.90;;;2.65;;
31652;SDS011;18261;53.648;9.910;2022-07-24T05:42:36;9.45;;;3.60;;
31652;SDS011;18261;53.648;9.910;2022-07-24T05:45:02;6.28;;;2.72;;
31652;SDS011;18261;53.648;9.910;2022-07-24T05:47:34;5.03;;;2.30;;
31652;SDS011;18261;53.648;9.910;2022-07-24T05:50:00;8.85;;;2.22;;
31652;SDS011;18261;53.648;9.910;2022-07-24T05:52:26;8.48;;;2.95;;
31652;SDS011;18261;53.648;9.910;2022-07-24T05:54:52;8.27;;;2.78;;
31652;SDS011;18261;53.648;9.910;2022-07-24T05:57:18;6.50;;;2.42;;
31652;SDS011;18261;53.648;9.910;2022-07-24T05:59:44;8.13;;;2.58;;
31652;SDS011;18261;53.648;9.910;2022-07-24T06:02:10;10.57;;;3.80;;
31652;SDS011;18261;53.648;9.910;2022-07-24T06:04:36;8.75;;;2.60;;
31652;SDS011;18261;53.648;9.910;2022-07-24T06:07:06;4.35;;;2.08;;
31652;SDS011;18261;53.648;9.910;2022-07-24T06:09:32;8.23;;;2.17;;
31652;SDS011;18261;53.648;9.910;2022-07-24T06:11:58;7.55;;;3.25;;
31652;SDS011;18261;53.648;9.910;2022-07-24T06:14:24;8.48;;;3.72;;
31652;SDS011;18261;53.648;9.910;2022-07-24T06:16:50;10.73;;;3.22;;
31652;SDS011;18261;53.648;9.910;2022-07-24T06:19:16;7.38;;;2.45;;
31652;SDS011;18261;53.648;9.910;2022-07-24T06:21:42;3.28;;;1.85;;
31652;SDS011;18261;53.648;9.910;2022-07-24T06:24:08;3.75;;;2.33;;
31652;SDS011;18261;53.648;9.910;2022-07-24T06:26:34;10.57;;;1.98;;
31652;SDS011;18261;53.648;9.910;2022-07-24T06:29:00;10.38;;;2.30;;
31652;SDS011;18261;53.648;9.910;2022-07-24T06:31:26;8.02;;;1.98;;
31652;SDS011;18261;53.648;9.910;2022-07-24T06:33:52;5.45;;;2.03;;
31652;SDS011;18261;53.648;9.910;2022-07-24T06:36:18;5.15;;;2.75;;
31652;SDS011;18261;53.648;9.910;2022-07-24T06:38:44;9.82;;;2.67;;
31652;SDS011;18261;53.648;9.910;2022-07-24T06:41:10;6.22;;;2.80;;
31652;SDS011;18261;53.648;9.910;2022-07-24T06:43:36;4.95;;;2.30;;
31652;SDS011;18261;53.648;9.910;2022-07-24T06:46:02;8.02;;;2.70;;
31652;SDS011;18261;53.648;9.910;2022-07-24T06:48:29;10.50;;;2.38;;
31652;SDS011;18261;53.648;9.910;2022-07-24T06:50:55;7.30;;;2.58;;
31652;SDS011;18261;53.648;9.910;2022-07-24T06:53:21;6.28;;;2.15;;
31652;SDS011;18261;53.648;9.910;2022-07-24T06:55:47;6.75;;;2.58;;
31652;SDS011;18261;53.648;9.910;2022-07-24T06:58:13;5.68;;;2.30;;
31652;SDS011;18261;53.648;9.910;2022-07-24T07:00:39;7.10;;;2.50;;
31652;SDS011;18261;53.648;9.910;2022-07-24T07:03:05;7.20;;;2.40;;
31652;SDS011;18261;53.648;9.910;2022-07-24T07:05:31;5.22;;;2.13;;
31652;SDS011;18261;53.648;9.910;2022-07-24T07:07:57;5.32;;;2.00;;
31652;SDS011;18261;53.648;9.910;2022-07-24T07:10:23;8.13;;;1.85;;
31652;SDS011;18261;53.648;9.910;2022-07-24T07:12:49;9.90;;;2.53;;
31652;SDS011;18261;53.648;9.910;2022-07-24T07:15:15;7.13;;;2.25;;
31652;SDS011;18261;53.648;9.910;2022-07-24T07:17:41;6.10;;;2.13;;
31652;SDS011;18261;53.648;9.910;2022-07-24T07:20:08;7.68;;;2.35;;
31652;SDS011;18261;53.648;9.910;2022-07-24T07:22:34;4.43;;;2.10;;
31652;SDS011;18261;53.648;9.910;2022-07-24T07:25:01;5.15;;;1.83;;
31652;SDS011;18261;53.648;9.910;2022-07-24T07:27:27;4.90;;;2.00;;
31652;SDS011;18261;53.648;9.910;2022-07-24T07:29:52;4.88;;;2.20;;
31652;SDS011;18261;53.648;9.910;2022-07-24T07:32:18;12.23;;;2.70;;
31652;SDS011;18261;53.648;9.910;2022-07-24T07:34:44;7.53;;;2.53;;
31652;SDS011;18261;53.648;9.910;2022-07-24T07:37:10;6.55;;;2.47;;
31652;SDS011;18261;53.648;9.910;2022-07-24T07:39:36;8.57;;;2.67;;
31652;SDS011;18261;53.648;9.910;2022-07-24T07:42:02;7.18;;;2.15;;
31652;SDS011;18261;53.648;9.910;2022-07-24T07:44:28;11.70;;;2.80;;
31652;SDS011;18261;53.648;9.910;2022-07-24T07:46:54;5.15;;;2.20;;
31652;SDS011;18261;53.648;9.910;2022-07-24T07:49:20;4.63;;;2.10;;
31652;SDS011;18261;53.648;9.910;2022-07-24T07:51:46;7.80;;;2.13;;
31652;SDS011;18261;53.648;9.910;2022-07-24T07:54:16;6.25;;;2.47;;
31652;SDS011;18261;53.648;9.910;2022-07-24T07:56:42;6.00;;;2.33;;
31652;SDS011;18261;53.648;9.910;2022-07-24T07:59:08;5.85;;;2.58;;
31652;SDS011;18261;53.648;9.910;2022-07-24T08:01:34;5.93;;;2.25;;
31652;SDS011;18261;53.648;9.910;2022-07-24T08:04:00;7.97;;;2.53;;
31652;SDS011;18261;53.648;9.910;2022-07-24T08:06:26;5.95;;;2.30;;
31652;SDS011;18261;53.648;9.910;2022-07-24T08:08:52;8.80;;;2.03;;
31652;SDS011;18261;53.648;9.910;2022-07-24T08:11:18;5.95;;;2.33;;
31652;SDS011;18261;53.648;9.910;2022-07-24T08:13:44;8.05;;;3.08;;
31652;SDS011;18261;53.648;9.910;2022-07-24T08:16:10;6.30;;;2.53;;
31652;SDS011;18261;53.648;9.910;2022-07-24T08:18:36;7.28;;;2.30;;
31652;SDS011;18261;53.648;9.910;2022-07-24T08:21:02;9.88;;;2.47;;
31652;SDS011;18261;53.648;9.910;2022-07-24T08:23:28;7.07;;;2.50;;
31652;SDS011;18261;53.648;9.910;2022-07-24T08:25:54;5.72;;;2.50;;
31652;SDS011;18261;53.648;9.910;2022-07-24T08:28:20;4.70;;;2.00;;
31652;SDS011;18261;53.648;9.910;2022-07-24T08:30:48;8.70;;;2.80;;
31652;SDS011;18261;53.648;9.910;2022-07-24T08:33:14;6.95;;;2.28;;
31652;SDS011;18261;53.648;9.910;2022-07-24T08:35:39;12.45;;;2.35;;
31652;SDS011;18261;53.648;9.910;2022-07-24T08:38:05;5.13;;;1.98;;
31652;SDS011;18261;53.648;9.910;2022-07-24T08:40:41;6.05;;;2.30;;
31652;SDS011;18261;53.648;9.910;2022-07-24T08:43:07;10.10;;;2.65;;
31652;SDS011;18261;53.648;9.910;2022-07-24T08:45:38;6.57;;;2.88;;
31652;SDS011;18261;53.648;9.910;2022-07-24T08:48:05;6.50;;;2.70;;
31652;SDS011;18261;53.648;9.910;2022-07-24T08:50:33;6.57;;;2.50;;
31652;SDS011;18261;53.648;9.910;2022-07-24T08:52:59;3.85;;;2.03;;
31652;SDS011;18261;53.648;9.910;2022-07-24T08:55:28;7.63;;;2.35;;
31652;SDS011;18261;53.648;9.910;2022-07-24T08:57:58;9.05;;;2.63;;
31652;SDS011;18261;53.648;9.910;2022-07-24T09:00:25;5.45;;;2.85;;
31652;SDS011;18261;53.648;9.910;2022-07-24T09:02:51;8.52;;;2.50;;
31652;SDS011;18261;53.648;9.910;2022-07-24T09:05:17;5.90;;;3.00;;
31652;SDS011;18261;53.648;9.910;2022-07-24T09:07:43;9.85;;;2.42;;
31652;SDS011;18261;53.648;9.910;2022-07-24T09:10:13;9.27;;;2.80;;
31652;SDS011;18261;53.648;9.910;2022-07-24T09:12:41;8.80;;;2.40;;
31652;SDS011;18261;53.648;9.910;2022-07-24T09:15:11;7.82;;;2.53;;
31652;SDS011;18261;53.648;9.910;2022-07-24T09:17:46;8.05;;;3.17;;
31652;SDS011;18261;53.648;9.910;2022-07-24T09:20:12;7.28;;;2.65;;
31652;SDS011;18261;53.648;9.910;2022-07-24T09:22:39;5.25;;;2.42;;
31652;SDS011;18261;53.648;9.910;2022-07-24T09:27:32;4.65;;;2.15;;
31652;SDS011;18261;53.648;9.910;2022-07-24T09:29:59;5.75;;;2.88;;
31652;SDS011;18261;53.648;9.910;2022-07-24T09:32:25;5.65;;;2.10;;
31652;SDS011;18261;53.648;9.910;2022-07-24T09:34:52;3.55;;;2.08;;
31652;SDS011;18261;53.648;9.910;2022-07-24T09:37:18;5.97;;;2.80;;
31652;SDS011;18261;53.648;9.910;2022-07-24T09:39:44;5.57;;;2.58;;
31652;SDS011;18261;53.648;9.910;2022-07-24T09:42:10;6.85;;;3.38;;
31652;SDS011;18261;53.648;9.910;2022-07-24T09:44:37;6.05;;;3.03;;
31652;SDS011;18261;53.648;9.910;2022-07-24T09:47:04;6.85;;;3.33;;
31652;SDS011;18261;53.648;9.910;2022-07-24T09:49:31;7.32;;;3.03;;
31652;SDS011;18261;53.648;9.910;2022-07-24T09:52:07;7.57;;;3.10;;
31652;SDS011;18261;53.648;9.910;2022-07-24T09:54:39;11.05;;;3.20;;
31652;SDS011;18261;53.648;9.910;2022-07-24T09:57:19;8.13;;;3.08;;
31652;SDS011;18261;53.648;9.910;2022-07-24T09:59:50;7.70;;;3.35;;
31652;SDS011;18261;53.648;9.910;2022-07-24T10:02:17;7.97;;;3.20;;
31652;SDS011;18261;53.648;9.910;2022-07-24T10:04:43;5.97;;;3.22;;
31652;SDS011;18261;53.648;9.910;2022-07-24T10:07:11;7.63;;;3.38;;
31652;SDS011;18261;53.648;9.910;2022-07-24T10:09:39;9.05;;;3.50;;
31652;SDS011;18261;53.648;9.910;2022-07-24T10:12:06;5.95;;;3.67;;
31652;SDS011;18261;53.648;9.910;2022-07-24T10:14:34;8.57;;;3.47;;
31652;SDS011;18261;53.648;9.910;2022-07-24T10:17:10;9.10;;;3.20;;
31652;SDS011;18261;53.648;9.910;2022-07-24T10:19:38;5.88;;;3.30;;
31652;SDS011;18261;53.648;9.910;2022-07-24T10:22:08;7.57;;;3.67;;
31652;SDS011;18261;53.648;9.910;2022-07-24T10:27:04;11.05;;;3.10;;
31652;SDS011;18261;53.648;9.910;2022-07-24T10:29:31;11.02;;;4.32;;
31652;SDS011;18261;53.648;9.910;2022-07-24T10:31:59;6.55;;;3.60;;
31652;SDS011;18261;53.648;9.910;2022-07-24T10:40:04;9.10;;;3.50;;
31652;SDS011;18261;53.648;9.910;2022-07-24T10:42:51;11.10;;;3.33;;
31652;SDS011;18261;53.648;9.910;2022-07-24T10:45:19;7.18;;;3.45;;
31652;SDS011;18261;53.648;9.910;2022-07-24T10:47:47;7.13;;;3.45;;
31652;SDS011;18261;53.648;9.910;2022-07-24T10:50:13;10.00;;;3.80;;
31652;SDS011;18261;53.648;9.910;2022-07-24T10:52:40;10.55;;;4.50;;
31652;SDS011;18261;53.648;9.910;2022-07-24T10:57:56;9.77;;;4.45;;
31652;SDS011;18261;53.648;9.910;2022-07-24T11:02:55;11.77;;;4.72;;
31652;SDS011;18261;53.648;9.910;2022-07-24T11:10:45;11.18;;;4.63;;
31652;SDS011;18261;53.648;9.910;2022-07-24T11:18:22;13.50;;;7.72;;
31652;SDS011;18261;53.648;9.910;2022-07-24T11:20:48;7.18;;;4.10;;
31652;SDS011;18261;53.648;9.910;2022-07-24T11:23:20;6.65;;;3.85;;
31652;SDS011;18261;53.648;9.910;2022-07-24T11:25:46;6.80;;;3.95;;
31652;SDS011;18261;53.648;9.910;2022-07-24T11:28:13;11.63;;;4.60;;
31652;SDS011;18261;53.648;9.910;2022-07-24T11:30:43;9.68;;;4.30;;
31652;SDS011;18261;53.648;9.910;2022-07-24T11:33:12;8.82;;;4.53;;
31652;SDS011;18261;53.648;9.910;2022-07-24T11:35:42;7.95;;;4.10;;
31652;SDS011;18261;53.648;9.910;2022-07-24T11:38:08;6.47;;;3.88;;
31652;SDS011;18261;53.648;9.910;2022-07-24T11:40:35;9.23;;;4.20;;
31652;SDS011;18261;53.648;9.910;2022-07-24T11:43:03;13.95;;;4.57;;
31652;SDS011;18261;53.648;9.910;2022-07-24T11:45:30;8.35;;;3.88;;
31652;SDS011;18261;53.648;9.910;2022-07-24T11:47:56;4.80;;;3.70;;
31652;SDS011;18261;53.648;9.910;2022-07-24T11:50:24;8.48;;;4.40;;
31652;SDS011;18261;53.648;9.910;2022-07-24T11:52:50;7.55;;;4.00;;
31652;SDS011;18261;53.648;9.910;2022-07-24T11:55:20;9.15;;;4.10;;
31652;SDS011;18261;53.648;9.910;2022-07-24T11:57:48;11.95;;;4.60;;
31652;SDS011;18261;53.648;9.910;2022-07-24T12:00:15;9.68;;;4.43;;
31652;SDS011;18261;53.648;9.910;2022-07-24T12:02:43;8.75;;;4.53;;
31652;SDS011;18261;53.648;9.910;2022-07-24T12:05:09;13.15;;;4.22;;
31652;SDS011;18261;53.648;9.910;2022-07-24T12:07:35;7.95;;;3.90;;
31652;SDS011;18261;53.648;9.910;2022-07-24T12:10:01;6.43;;;4.47;;
31652;SDS011;18261;53.648;9.910;2022-07-24T12:12:31;7.97;;;4.05;;
31652;SDS011;18261;53.648;9.910;2022-07-24T12:15:02;11.60;;;4.40;;
31652;SDS011;18261;53.648;9.910;2022-07-24T12:17:30;7.80;;;3.85;;
31652;SDS011;18261;53.648;9.910;2022-07-24T12:19:56;11.73;;;4.32;;
31652;SDS011;18261;53.648;9.910;2022-07-24T12:22:23;6.70;;;4.10;;
31652;SDS011;18261;53.648;9.910;2022-07-24T12:24:50;6.90;;;4.20;;
31652;SDS011;18261;53.648;9.910;2022-07-24T12:27:36;10.38;;;4.55;;
31652;SDS011;18261;53.648;9.910;2022-07-24T12:30:04;12.52;;;4.53;;
31652;SDS011;18261;53.648;9.910;2022-07-24T12:32:30;8.45;;;4.43;;
31652;SDS011;18261;53.648;9.910;2022-07-24T12:34:56;4.03;;;3.40;;
31652;SDS011;18261;53.648;9.910;2022-07-24T12:37:22;9.90;;;4.55;;
31652;SDS011;18261;53.648;9.910;2022-07-24T12:39:49;6.53;;;4.28;;
31652;SDS011;18261;53.648;9.910;2022-07-24T12:42:15;8.13;;;4.65;;
31652;SDS011;18261;53.648;9.910;2022-07-24T12:44:42;9.90;;;4.60;;
31652;SDS011;18261;53.648;9.910;2022-07-24T12:47:09;7.10;;;4.40;;
31652;SDS011;18261;53.648;9.910;2022-07-24T12:49:39;6.57;;;4.28;;
31652;SDS011;18261;53.648;9.910;2022-07-24T12:52:06;9.07;;;4.13;;
31652;SDS011;18261;53.648;9.910;2022-07-24T12:54:45;9.23;;;4.32;;
31652;SDS011;18261;53.648;9.910;2022-07-24T12:57:12;11.52;;;4.15;;
31652;SDS011;18261;53.648;9.910;2022-07-24T12:59:39;7.45;;;4.50;;
31652;SDS011;18261;53.648;9.910;2022-07-24T13:02:06;9.55;;;4.65;;
31652;SDS011;18261;53.648;9.910;2022-07-24T13:04:33;6.63;;;3.80;;
31652;SDS011;18261;53.648;9.910;2022-07-24T13:07:06;5.50;;;3.95;;
31652;SDS011;18261;53.648;9.910;2022-07-24T13:09:32;12.27;;;4.10;;
31652;SDS011;18261;53.648;9.910;2022-07-24T13:11:59;8.73;;;4.25;;
31652;SDS011;18261;53.648;9.910;2022-07-24T13:14:25;10.88;;;4.10;;
31652;SDS011;18261;53.648;9.910;2022-07-24T13:16:53;12.13;;;4.00;;
31652;SDS011;18261;53.648;9.910;2022-07-24T13:19:19;7.32;;;3.80;;
31652;SDS011;18261;53.648;9.910;2022-07-24T13:21:46;7.60;;;4.32;;
31652;SDS011;18261;53.648;9.910;2022-07-24T13:24:13;8.73;;;4.28;;
31652;SDS011;18261;53.648;9.910;2022-07-24T13:26:40;9.35;;;4.05;;
31652;SDS011;18261;53.648;9.910;2022-07-24T13:29:06;9.60;;;4.13;;
31652;SDS011;18261;53.648;9.910;2022-07-24T13:31:32;10.02;;;4.18;;
31652;SDS011;18261;53.648;9.910;2022-07-24T13:33:58;10.80;;;4.43;;
31652;SDS011;18261;53.648;9.910;2022-07-24T13:36:24;9.25;;;3.90;;
31652;SDS011;18261;53.648;9.910;2022-07-24T13:38:50;7.80;;;4.38;;
31652;SDS011;18261;53.648;9.910;2022-07-24T13:41:16;8.50;;;4.28;;
31652;SDS011;18261;53.648;9.910;2022-07-24T13:43:43;8.82;;;4.32;;
31652;SDS011;18261;53.648;9.910;2022-07-24T13:46:10;9.38;;;4.10;;
31652;SDS011;18261;53.648;9.910;2022-07-24T13:48:36;6.55;;;4.07;;
31652;SDS011;18261;53.648;9.910;2022-07-24T13:51:02;13.43;;;4.07;;
31652;SDS011;18261;53.648;9.910;2022-07-24T13:53:28;7.50;;;4.25;;
31652;SDS011;18261;53.648;9.910;2022-07-24T13:55:54;12.95;;;4.07;;
31652;SDS011;18261;53.648;9.910;2022-07-24T13:58:20;12.57;;;4.03;;
31652;SDS011;18261;53.648;9.910;2022-07-24T14:00:46;37.70;;;6.28;;
31652;SDS011;18261;53.648;9.910;2022-07-24T14:03:12;28.17;;;4.65;;
31652;SDS011;18261;53.648;9.910;2022-07-24T14:05:38;6.53;;;4.20;;
31652;SDS011;18261;53.648;9.910;2022-07-24T14:08:04;10.88;;;3.53;;
31652;SDS011;18261;53.648;9.910;2022-07-24T14:10:30;20.85;;;4.82;;
31652;SDS011;18261;53.648;9.910;2022-07-24T14:12:56;8.50;;;4.15;;
31652;SDS011;18261;53.648;9.910;2022-07-24T14:15:22;10.20;;;4.28;;
31652;SDS011;18261;53.648;9.910;2022-07-24T14:17:48;8.38;;;3.78;;
31652;SDS011;18261;53.648;9.910;2022-07-24T14:20:14;21.52;;;4.97;;
31652;SDS011;18261;53.648;9.910;2022-07-24T14:22:40;6.75;;;3.75;;
31652;SDS011;18261;53.648;9.910;2022-07-24T14:25:08;8.10;;;4.13;;
31652;SDS011;18261;53.648;9.910;2022-07-24T14:27:34;6.22;;;3.63;;
31652;SDS011;18261;53.648;9.910;2022-07-24T14:30:00;8.15;;;4.28;;
31652;SDS011;18261;53.648;9.910;2022-07-24T14:32:26;7.22;;;3.60;;
31652;SDS011;18261;53.648;9.910;2022-07-24T14:34:52;11.50;;;3.88;;
31652;SDS011;18261;53.648;9.910;2022-07-24T14:37:18;6.45;;;3.72;;
31652;SDS011;18261;53.648;9.910;2022-07-24T14:39:44;6.47;;;3.80;;
31652;SDS011;18261;53.648;9.910;2022-07-24T14:42:10;6.47;;;3.40;;
31652;SDS011;18261;53.648;9.910;2022-07-24T14:44:37;9.05;;;3.50;;
31652;SDS011;18261;53.648;9.910;2022-07-24T14:47:03;5.85;;;3.50;;
31652;SDS011;18261;53.648;9.910;2022-07-24T14:49:32;9.52;;;3.70;;
31652;SDS011;18261;53.648;9.910;2022-07-24T14:51:58;5.88;;;3.42;;
31652;SDS011;18261;53.648;9.910;2022-07-24T14:54:24;7.82;;;3.85;;
31652;SDS011;18261;53.648;9.910;2022-07-24T14:56:50;6.28;;;3.67;;
31652;SDS011;18261;53.648;9.910;2022-07-24T14:59:16;7.47;;;3.72;;
31652;SDS011;18261;53.648;9.910;2022-07-24T15:01:43;7.47;;;3.97;;
31652;SDS011;18261;53.648;9.910;2022-07-24T15:04:09;8.07;;;3.50;;
31652;SDS011;18261;53.648;9.910;2022-07-24T15:06:35;4.28;;;2.92;;
31652;SDS011;18261;53.648;9.910;2022-07-24T15:09:02;6.07;;;3.97;;